Time;durP1;ratioP1;P1;durP2;ratioP2;P2;SDS_P1;SDS_P2;PMS_P1;PMS_P2;Temp;Humidity;BMP_temperature;BMP_pressure;BME280_temperature;BME280_humidity;BME280_pressure;Samples;Min_cycle;Max_cycle;Signal;HPM_P1;HPM_P2
2022/08/29 00:02:03;;;;;;;13.45;9.25;;;;;;;21.06;59.97;99206.97;4991037;28;20041;-85
2022/08/29 00:04:28;;;;;;;16.92;9.40;;;;;;;21.01;59.90;99196.03;4995410;28;20036;-85
2022/08/29 00:06:54;;;;;;;21.80;8.48;;;;;;;21.04;59.85;99189.50;4992493;28;20120;-85
2022/08/29 00:09:19;;;;;;;18.75;10.25;;;;;;;21.22;59.44;99203.63;4989718;28;20053;-85
2022/08/29 00:11:45;;;;;;;14.90;9.52;;;;;;;21.20;59.63;99208.94;4995765;28;20480;-85
2022/08/29 00:14:10;;;;;;;20.90;10.27;;;;;;;21.32;59.76;99202.78;4995691;28;20109;-85
2022/08/29 00:16:36;;;;;;;19.75;9.52;;;;;;;21.30;59.65;99207.25;5011656;28;20029;-85
2022/08/29 00:19:01;;;;;;;19.98;9.95;;;;;;;21.18;59.70;99197.16;4995356;28;20080;-84
2022/08/29 00:21:27;;;;;;;21.67;9.68;;;;;;;21.47;59.39;99205.53;4996027;28;20064;-85
2022/08/29 00:23:52;;;;;;;19.63;9.82;;;;;;;21.33;59.63;99200.72;4993396;28;20029;-85
2022/08/29 00:26:18;;;;;;;26.05;11.00;;;;;;;21.14;60.14;99199.19;4980090;28;20037;-85
2022/08/29 00:28:43;;;;;;;22.20;8.95;;;;;;;21.16;59.91;99189.03;4995469;28;20026;-84
2022/08/29 00:31:09;;;;;;;20.83;10.73;;;;;;;20.90;60.61;99181.84;4995735;28;20463;-85
2022/08/29 00:33:35;;;;;;;15.27;9.30;;;;;;;20.90;61.23;99194.03;4995159;28;20030;-85
2022/08/29 00:36:00;;;;;;;16.67;10.18;;;;;;;20.85;61.29;99202.97;4995665;28;20029;-85
2022/08/29 00:38:26;;;;;;;16.85;11.20;;;;;;;20.60;62.51;99203.06;4994965;28;20559;-85
2022/08/29 00:40:54;;;;;;;14.63;9.52;;;;;;;20.41;62.90;99195.81;4995273;28;20030;-85
2022/08/29 00:43:27;;;;;;;15.07;9.93;;;;;;;20.29;63.62;99200.69;4994962;28;20088;-85
2022/08/29 00:46:24;;;;;;;27.13;9.95;;;;;;;20.47;63.04;99205.50;4995041;28;20059;-85
2022/08/29 00:48:55;;;;;;;20.85;9.68;;;;;;;20.77;62.25;99210.69;4993033;28;20030;-85
2022/08/29 00:51:22;;;;;;;23.75;9.70;;;;;;;20.65;62.58;99207.50;4994439;28;20026;-85
2022/08/29 00:54:02;;;;;;;23.95;11.18;;;;;;;20.60;62.27;99188.84;4994211;28;20050;-85
2022/08/29 00:56:29;;;;;;;15.65;10.80;;;;;;;20.80;62.31;99209.06;4995504;28;20121;-85
2022/08/29 00:59:01;;;;;;;16.90;10.15;;;;;;;21.01;61.55;99196.81;4994834;28;20042;-85
2022/08/29 01:01:27;;;;;;;19.40;9.70;;;;;;;21.40;60.56;99205.56;4994811;28;20389;-85
2022/08/29 01:03:53;;;;;;;17.50;10.90;;;;;;;21.60;59.57;99200.16;4994869;28;20029;-84
2022/08/29 01:06:21;;;;;;;20.33;10.20;;;;;;;21.48;59.80;99212.00;4995535;28;20030;-84
2022/08/29 01:08:47;;;;;;;21.52;10.38;;;;;;;21.48;60.12;99207.13;4996161;28;20088;-85
2022/08/29 01:14:00;;;;;;;20.83;11.32;;;;;;;21.55;59.74;99194.91;5013029;28;20041;-85
2022/08/29 01:16:27;;;;;;;23.50;10.23;;;;;;;21.33;60.58;99200.72;5014025;28;20033;-84
2022/08/29 01:18:58;;;;;;;17.70;10.40;;;;;;;21.36;60.44;99204.78;4996312;28;20030;-85
2022/08/29 01:21:28;;;;;;;22.65;11.13;;;;;;;21.42;60.50;99215.31;4994072;28;20468;-85
2022/08/29 01:24:21;;;;;;;24.77;10.63;;;;;;;21.18;60.50;99211.38;5007429;28;20485;-85
2022/08/29 01:26:47;;;;;;;16.35;10.23;;;;;;;20.86;61.06;99206.66;4994938;28;20048;-85
2022/08/29 01:29:14;;;;;;;17.70;10.15;;;;;;;20.88;61.50;99216.38;4994104;28;20030;-85
2022/08/29 01:31:42;;;;;;;21.92;10.77;;;;;;;20.83;61.81;99210.31;5012004;28;20014;-85
2022/08/29 01:34:09;;;;;;;18.27;11.05;;;;;;;20.81;61.36;99190.81;4993981;28;20404;-85
2022/08/29 01:36:42;;;;;;;21.08;10.57;;;;;;;21.11;60.63;99200.03;4993995;28;20481;-85
2022/08/29 01:39:08;;;;;;;25.70;10.77;;;;;;;21.53;59.58;99217.28;4993772;28;20065;-85
2022/08/29 01:41:34;;;;;;;20.38;10.82;;;;;;;21.03;61.05;99208.59;4994380;28;20704;-85
2022/08/29 01:44:00;;;;;;;26.02;11.68;;;;;;;20.74;61.87;99210.69;5010894;28;20028;-85
2022/08/29 01:46:32;;;;;;;25.23;10.80;;;;;;;20.70;62.06;99209.91;4993597;28;20519;-85
2022/08/29 01:49:01;;;;;;;27.20;13.38;;;;;;;20.81;61.72;99207.88;4993384;28;20560;-85
2022/08/29 01:51:27;;;;;;;28.70;11.23;;;;;;;20.86;60.59;99218.81;5010771;28;20444;-85
2022/08/29 01:53:52;;;;;;;16.55;10.45;;;;;;;20.58;61.36;99211.19;4993361;28;20030;-85
2022/08/29 01:56:22;;;;;;;24.85;10.68;;;;;;;20.85;61.60;99214.34;4992441;28;20033;-85
2022/08/29 01:58:50;;;;;;;22.45;12.18;;;;;;;20.80;60.57;99200.53;4993047;28;20026;-85
2022/08/29 02:01:21;;;;;;;30.67;10.07;;;;;;;20.94;59.05;99218.78;4993288;28;20635;-85
2022/08/29 02:03:46;;;;;;;14.88;10.40;;;;;;;20.99;58.94;99210.66;4991992;28;20520;-85
2022/08/29 02:06:12;;;;;;;18.23;10.43;;;;;;;20.96;58.81;99217.16;4993983;28;20108;-85
2022/08/29 02:08:40;;;;;;;17.02;9.93;;;;;;;21.17;58.22;99210.56;4993579;28;20029;-85
2022/08/29 02:11:10;;;;;;;12.63;9.13;;;;;;;21.38;57.46;99225.91;4994053;28;20027;-86
2022/08/29 02:13:38;;;;;;;20.23;10.32;;;;;;;21.40;57.13;99217.75;4993392;28;20029;-85
2022/08/29 02:16:04;;;;;;;22.88;9.90;;;;;;;21.36;57.57;99205.59;4993804;28;20511;-85
2022/08/29 02:18:32;;;;;;;19.92;10.57;;;;;;;21.39;57.46;99195.41;5008209;28;20455;-85
2022/08/29 02:20:58;;;;;;;25.30;10.20;;;;;;;21.53;57.59;99208.72;4993929;28;20022;-85
2022/08/29 02:23:24;;;;;;;30.45;10.65;;;;;;;21.53;57.19;99192.47;4992380;28;20125;-85
2022/08/29 02:25:50;;;;;;;42.45;10.38;;;;;;;21.44;57.33;99178.69;4993835;28;20432;-85
2022/08/29 02:28:17;;;;;;;20.02;10.05;;;;;;;21.55;57.92;99201.41;4993257;28;20040;-85
2022/08/29 02:30:47;;;;;;;21.48;10.07;;;;;;;21.38;58.39;99206.00;4992275;28;20022;-85
2022/08/29 02:33:14;;;;;;;18.25;10.50;;;;;;;21.43;58.56;99210.44;4993347;28;20018;-85
2022/08/29 02:35:40;;;;;;;16.20;9.43;;;;;;;21.10;59.47;99204.09;4993242;28;20041;-85
2022/08/29 02:38:06;;;;;;;13.75;9.90;;;;;;;20.99;59.49;99195.63;4992734;28;20022;-85
2022/08/29 02:40:32;;;;;;;21.55;10.02;;;;;;;21.02;59.81;99192.75;4993324;28;20030;-85
2022/08/29 02:42:59;;;;;;;19.75;10.15;;;;;;;21.16;59.68;99213.81;4992600;28;20052;-85
2022/08/29 02:45:25;;;;;;;21.67;10.55;;;;;;;21.10;60.07;99213.44;4993155;28;20030;-85
2022/08/29 02:47:50;;;;;;;13.60;10.18;;;;;;;20.90;60.49;99196.06;5010803;28;20049;-85
2022/08/29 02:50:16;;;;;;;16.50;10.40;;;;;;;20.55;61.33;99186.41;4993062;28;20124;-85
2022/08/29 02:52:42;;;;;;;23.27;11.00;;;;;;;20.54;61.83;99208.34;4993229;28;20033;-85
2022/08/29 02:55:15;;;;;;;17.58;10.77;;;;;;;20.58;61.82;99208.34;4993455;28;20516;-85
2022/08/29 02:57:44;;;;;;;15.68;10.93;;;;;;;20.56;61.71;99211.59;4992515;28;20022;-85
2022/08/29 03:00:15;;;;;;;14.00;9.95;;;;;;;20.69;61.98;99225.34;4992435;28;20409;-85
2022/08/29 03:02:42;;;;;;;23.60;10.98;;;;;;;20.46;62.28;99218.09;4992491;28;20060;-86
2022/08/29 03:05:08;;;;;;;18.42;12.73;;;;;;;20.59;62.35;99227.00;4991482;28;20030;-85
2022/08/29 03:07:34;;;;;;;15.63;11.10;;;;;;;20.70;61.88;99221.28;4993076;28;20507;-85
2022/08/29 03:09:59;;;;;;;28.52;11.00;;;;;;;20.86;61.14;99224.50;5010207;28;20018;-85
2022/08/29 03:12:26;;;;;;;27.45;10.35;;;;;;;21.00;60.63;99223.63;4992553;28;20022;-85
2022/08/29 03:14:51;;;;;;;21.83;10.25;;;;;;;21.33;59.64;99234.84;4995990;28;20432;-85
2022/08/29 03:17:17;;;;;;;13.27;8.65;;;;;;;21.35;59.48;99226.72;4996743;28;20037;-86
2022/08/29 03:19:42;;;;;;;21.65;10.57;;;;;;;21.60;59.16;99234.31;4996605;28;20489;-85
2022/08/29 03:22:08;;;;;;;16.48;9.52;;;;;;;21.28;60.07;99238.13;4996611;28;20113;-85
2022/08/29 03:24:35;;;;;;;23.25;10.23;;;;;;;21.51;59.96;99259.56;4996505;28;20489;-85
2022/08/29 03:27:02;;;;;;;31.38;19.75;;;;;;;21.37;60.45;99264.09;4996804;28;20515;-85
2022/08/29 03:29:27;;;;;;;25.40;17.92;;;;;;;21.27;59.80;99248.69;4996611;28;20018;-86
2022/08/29 03:31:57;;;;;;;36.72;23.30;;;;;;;21.40;59.94;99245.38;4996764;28;20048;-85
2022/08/29 03:34:23;;;;;;;25.65;17.80;;;;;;;21.08;60.51;99244.31;4995920;28;20404;-85
2022/08/29 03:36:49;;;;;;;19.95;11.88;;;;;;;20.46;62.23;99252.19;4995799;28;20030;-85
2022/08/29 03:39:14;;;;;;;20.52;10.90;;;;;;;20.44;61.57;99255.41;4995995;28;20025;-85
2022/08/29 03:41:40;;;;;;;15.27;11.40;;;;;;;20.61;61.24;99250.13;4996480;28;20022;-85
2022/08/29 03:44:05;;;;;;;21.50;11.20;;;;;;;20.88;60.66;99264.72;4995641;28;20409;-85
2022/08/29 03:46:31;;;;;;;19.27;11.13;;;;;;;20.87;60.65;99251.69;4996025;28;20049;-85
2022/08/29 03:48:57;;;;;;;28.38;12.55;;;;;;;20.64;61.02;99237.16;4996167;28;20053;-86
2022/08/29 03:51:23;;;;;;;24.10;11.65;;;;;;;20.46;61.73;99247.31;4996107;28;20026;-85
2022/08/29 03:53:48;;;;;;;30.90;10.77;;;;;;;20.88;61.12;99264.72;4992064;28;20474;-85
2022/08/29 03:56:15;;;;;;;41.75;14.10;;;;;;;20.87;61.15;99228.16;4976883;28;20023;-85
2022/08/29 03:58:41;;;;;;;56.22;15.10;;;;;;;21.29;60.68;99271.84;4994052;28;20432;-85
2022/08/29 04:01:21;;;;;;;26.15;12.60;;;;;;;21.21;60.40;99278.81;5014091;28;20029;-85
2022/08/29 04:03:50;;;;;;;23.80;11.13;;;;;;;21.22;60.13;99296.66;5013327;28;20038;-85
2022/08/29 04:06:15;;;;;;;22.83;10.65;;;;;;;20.84;60.76;99268.78;4994603;28;20025;-85
2022/08/29 04:08:42;;;;;;;28.13;12.20;;;;;;;20.80;60.86;99265.91;4995622;28;20093;-85
2022/08/29 04:11:12;;;;;;;21.80;10.48;;;;;;;20.18;63.38;99305.72;4996158;28;20117;-85
2022/08/29 04:13:38;;;;;;;19.73;11.95;;;;;;;20.09;63.23;99273.28;4994130;28;20030;-86
2022/08/29 04:16:12;;;;;;;19.13;11.10;;;;;;;20.72;61.84;99316.28;4996475;28;20192;-85
2022/08/29 04:18:37;;;;;;;24.65;10.95;;;;;;;20.96;61.53;99301.63;4994822;28;20488;-85
2022/08/29 04:21:05;;;;;;;31.52;11.27;;;;;;;21.21;60.80;99307.22;4995950;28;20030;-85
2022/08/29 04:23:31;;;;;;;29.08;11.20;;;;;;;21.24;60.72;99308.44;4995476;28;20029;-85
2022/08/29 04:25:57;;;;;;;40.65;11.80;;;;;;;21.23;60.46;99309.66;5011854;28;20103;-85
2022/08/29 04:28:22;;;;;;;50.10;14.20;;;;;;;21.37;60.20;99309.63;4995537;28;20506;-85
2022/08/29 04:30:50;;;;;;;60.13;14.70;;;;;;;21.49;60.03;99316.06;4995668;28;20033;-85
2022/08/29 04:33:16;;;;;;;25.65;11.65;;;;;;;21.09;60.92;99299.16;5012876;28;20021;-86
2022/08/29 04:35:42;;;;;;;21.02;11.10;;;;;;;20.75;61.81;99308.94;5013544;28;20025;-86
2022/08/29 04:38:07;;;;;;;30.10;12.75;;;;;;;20.47;63.06;99313.44;4995242;28;20025;-85
2022/08/29 04:40:35;;;;;;;18.27;11.77;;;;;;;20.22;63.45;99294.38;5012735;28;20029;-85
2022/08/29 04:43:01;;;;;;;23.25;13.48;;;;;;;19.89;64.57;99282.16;5012915;28;20054;-85
2022/08/29 04:45:26;;;;;;;27.45;12.48;;;;;;;20.19;64.72;99306.56;5013663;28;20076;-85
2022/08/29 04:47:52;;;;;;;26.63;13.07;;;;;;;19.96;65.40;99296.41;4994746;28;20053;-86
2022/08/29 04:50:20;;;;;;;17.80;12.30;;;;;;;20.11;64.90;99321.97;4995624;28;20365;-85
2022/08/29 04:52:47;;;;;;;26.85;14.13;;;;;;;20.18;64.65;99317.09;4993135;28;20515;-85
2022/08/29 04:55:14;;;;;;;20.15;12.52;;;;;;;20.16;65.04;99313.84;4994388;28;20559;-85
2022/08/29 04:57:39;;;;;;;29.52;12.10;;;;;;;20.22;65.18;99314.25;4994544;28;20018;-86
2022/08/29 05:00:11;;;;;;;19.30;11.63;;;;;;;20.32;64.98;99316.28;4994026;28;20423;-85
2022/08/29 05:02:38;;;;;;;20.42;12.75;;;;;;;20.68;64.21;99326.00;4991723;28;20026;-86
2022/08/29 05:05:05;;;;;;;29.10;13.00;;;;;;;20.91;63.78;99334.13;4993793;28;20022;-86
2022/08/29 05:07:31;;;;;;;38.75;12.48;;;;;;;20.84;64.30;99339.84;4995036;28;20504;-86
2022/08/29 05:10:01;;;;;;;28.23;12.10;;;;;;;20.86;64.85;99335.34;4992539;28;20029;-85
2022/08/29 05:12:29;;;;;;;34.05;12.52;;;;;;;20.97;65.65;99331.66;4995418;28;20022;-85
2022/08/29 05:14:55;;;;;;;19.52;13.05;;;;;;;20.71;66.85;99313.81;5013065;28;20038;-86
2022/08/29 05:17:22;;;;;;;27.52;12.75;;;;;;;20.93;67.37;99334.50;4993851;28;20030;-86
2022/08/29 05:19:48;;;;;;;28.25;13.38;;;;;;;20.90;68.09;99332.50;4994903;28;20546;-86
2022/08/29 05:22:15;;;;;;;32.38;15.95;;;;;;;21.14;66.82;99336.50;4994351;28;20025;-86
2022/08/29 05:24:40;;;;;;;27.52;13.40;;;;;;;21.27;66.49;99325.47;4993971;28;20103;-86
2022/08/29 05:27:08;;;;;;;25.77;13.55;;;;;;;21.24;66.30;99322.66;5011074;28;20512;-86
2022/08/29 05:29:40;;;;;;;24.83;13.85;;;;;;;21.23;66.87;99333.22;4993859;28;20427;-86
2022/08/29 05:32:07;;;;;;;29.83;14.63;;;;;;;21.18;65.95;99333.66;4994763;28;20079;-86
2022/08/29 05:34:37;;;;;;;19.90;14.10;;;;;;;21.17;65.00;99332.84;4993876;28;20028;-86
2022/08/29 05:37:06;;;;;;;19.20;12.68;;;;;;;21.23;64.50;99326.72;4985587;28;20026;-85
2022/08/29 05:39:32;;;;;;;25.95;13.73;;;;;;;21.41;64.15;99340.88;4975245;28;20201;-86
2022/08/29 05:41:58;;;;;;;23.98;14.02;;;;;;;21.60;63.70;99353.81;4992155;28;20212;-86
2022/08/29 05:44:24;;;;;;;29.25;12.95;;;;;;;21.62;63.47;99342.00;4994737;28;20026;-86
2022/08/29 05:46:50;;;;;;;30.27;14.10;;;;;;;21.64;63.66;99348.91;4993818;28;20087;-86
2022/08/29 05:49:15;;;;;;;18.77;11.93;;;;;;;21.55;63.70;99334.31;4993232;28;20444;-86
2022/08/29 05:51:41;;;;;;;22.40;12.50;;;;;;;21.67;63.84;99345.25;4997077;28;20053;-86
2022/08/29 05:54:07;;;;;;;25.75;12.30;;;;;;;21.74;63.70;99341.56;4974611;28;20136;-86
2022/08/29 05:56:33;;;;;;;25.13;12.95;;;;;;;21.65;63.04;99319.22;4974827;28;20117;-86
2022/08/29 05:58:59;;;;;;;27.60;11.85;;;;;;;21.87;62.78;99345.56;4974947;28;20026;-86
2022/08/29 06:01:28;;;;;;;28.33;11.55;;;;;;;21.99;63.48;99363.38;4992419;28;20030;-85
2022/08/29 06:03:55;;;;;;;27.92;11.95;;;;;;;21.79;64.78;99346.84;4993989;28;20084;-86
2022/08/29 06:06:22;;;;;;;34.03;13.88;;;;;;;21.62;65.07;99325.75;4994432;28;20030;-86
2022/08/29 06:08:48;;;;;;;23.27;12.55;;;;;;;21.64;64.96;99322.47;4992965;28;20026;-86
2022/08/29 06:11:16;;;;;;;24.23;12.57;;;;;;;21.92;65.35;99363.44;5000268;28;20049;-86
2022/08/29 06:13:45;;;;;;;28.58;13.68;;;;;;;21.86;64.68;99348.81;5010128;28;20021;-85
2022/08/29 06:16:17;;;;;;;19.13;11.95;;;;;;;22.00;64.53;99360.13;4994432;28;20056;-86
2022/08/29 06:18:43;;;;;;;19.50;13.93;;;;;;;22.07;64.28;99362.13;5010541;28;20036;-84
2022/08/29 06:21:10;;;;;;;30.05;12.98;;;;;;;22.24;63.74;99348.97;4994036;28;20029;-86
2022/08/29 06:23:37;;;;;;;20.60;13.05;;;;;;;22.44;62.81;99356.94;4992023;28;20087;-86
2022/08/29 06:26:04;;;;;;;22.42;11.73;;;;;;;22.52;61.36;99347.16;4993809;28;20041;-85
2022/08/29 06:28:31;;;;;;;21.35;11.50;;;;;;;22.67;59.75;99353.53;4992853;28;20072;-85
2022/08/29 06:31:07;;;;;;;22.48;11.07;;;;;;;22.78;58.32;99359.13;4993731;28;20037;-85
2022/08/29 06:33:33;;;;;;;29.20;11.60;;;;;;;22.82;58.02;99351.38;4993694;28;20037;-86
2022/08/29 06:35:58;;;;;;;27.08;13.13;;;;;;;22.85;58.09;99341.16;5010716;28;20022;-86
2022/08/29 06:38:24;;;;;;;21.85;11.90;;;;;;;22.97;57.97;99352.03;4992303;28;20412;-86
2022/08/29 06:40:49;;;;;;;18.85;11.50;;;;;;;23.10;57.20;99348.63;4992468;28;20041;-85
2022/08/29 06:43:15;;;;;;;24.17;11.38;;;;;;;23.32;55.89;99345.56;5010897;28;20050;-86
2022/08/29 06:45:42;;;;;;;22.45;12.18;;;;;;;23.40;55.47;99335.69;4982758;28;20022;-85
2022/08/29 06:48:08;;;;;;;20.35;10.32;;;;;;;23.74;52.38;99359.72;4974328;28;20162;-85
2022/08/29 06:50:38;;;;;;;20.90;10.15;;;;;;;23.85;51.95;99363.25;4995880;28;20026;-85
2022/08/29 06:53:04;;;;;;;25.00;10.30;;;;;;;23.93;51.59;99344.78;4995313;28;20038;-86
2022/08/29 06:55:30;;;;;;;26.90;10.25;;;;;;;23.88;51.00;99330.16;4997193;28;20124;-86
2022/08/29 06:57:55;;;;;;;15.20;9.35;;;;;;;24.24;50.77;99367.59;4997649;28;20121;-86
2022/08/29 07:00:22;;;;;;;28.42;10.65;;;;;;;24.40;49.66;99366.94;4997699;28;20033;-86
2022/08/29 07:02:48;;;;;;;18.00;9.65;;;;;;;24.27;49.13;99339.41;4996341;28;20044;-85
2022/08/29 07:05:14;;;;;;;18.08;10.30;;;;;;;24.42;48.94;99360.81;4995292;28;20109;-86
2022/08/29 07:07:41;;;;;;;24.73;11.25;;;;;;;24.60;49.19;99357.66;4998337;28;21195;-85
2022/08/29 07:10:07;;;;;;;17.00;9.48;;;;;;;24.63;48.79;99362.50;4997772;28;20044;-85
2022/08/29 07:12:33;;;;;;;14.27;9.80;;;;;;;24.62;48.38;99360.88;4997564;28;20489;-85
2022/08/29 07:15:00;;;;;;;20.80;10.55;;;;;;;24.50;48.58;99342.31;4996906;28;20152;-86
2022/08/29 07:17:27;;;;;;;21.55;10.25;;;;;;;24.64;48.44;99343.28;4997344;28;20029;-86
2022/08/29 07:19:54;;;;;;;26.48;11.38;;;;;;;24.89;47.40;99351.44;4997199;28;20064;-86
2022/08/29 07:22:19;;;;;;;20.50;10.43;;;;;;;24.79;47.11;99321.81;4997422;28;20026;-86
2022/08/29 07:24:45;;;;;;;22.38;9.57;;;;;;;25.20;46.44;99347.59;4996659;28;20022;-86
2022/08/29 07:27:12;;;;;;;14.98;9.88;;;;;;;25.53;46.10;99353.50;4997270;28;20048;-86
2022/08/29 07:29:38;;;;;;;13.98;9.35;;;;;;;25.46;44.98;99342.16;4996446;28;20488;-86
2022/08/29 07:32:04;;;;;;;21.35;9.02;;;;;;;25.42;45.24;99345.13;4997325;28;20030;-86
2022/08/29 07:34:29;;;;;;;22.50;11.15;;;;;;;25.61;46.08;99345.56;4996049;28;20501;-86
2022/08/29 07:36:55;;;;;;;12.00;9.40;;;;;;;25.78;45.43;99344.38;4996402;28;20060;-85
2022/08/29 07:39:21;;;;;;;16.08;10.23;;;;;;;26.01;45.86;99344.69;4996914;28;20405;-86
2022/08/29 07:41:47;;;;;;;21.75;10.25;;;;;;;26.21;45.50;99356.94;4996662;28;20037;-85
2022/08/29 07:44:14;;;;;;;18.40;10.13;;;;;;;26.15;46.74;99343.56;4996288;28;20022;-86
2022/08/29 07:46:40;;;;;;;13.93;10.70;;;;;;;26.24;47.50;99345.84;4993641;28;20020;-86
2022/08/29 07:49:07;;;;;;;18.35;10.73;;;;;;;26.15;46.86;99347.22;5006346;28;20026;-86
2022/08/29 07:51:33;;;;;;;12.57;10.00;;;;;;;26.52;47.86;99352.94;4996771;28;20500;-87
2022/08/29 07:53:59;;;;;;;18.33;10.85;;;;;;;26.43;46.63;99350.69;4996422;28;20503;-86
2022/08/29 07:56:28;;;;;;;18.13;10.50;;;;;;;26.54;47.52;99350.41;4996959;28;20018;-87
2022/08/29 07:58:55;;;;;;;20.87;11.00;;;;;;;26.38;46.78;99319.69;4996248;28;20034;-87
2022/08/29 08:01:23;;;;;;;25.27;11.25;;;;;;;26.29;47.11;99346.13;4995171;28;20049;-88
2022/08/29 08:03:50;;;;;;;19.20;10.77;;;;;;;26.40;46.23;99337.22;4982914;28;20575;-87
2022/08/29 08:06:16;;;;;;;21.00;11.85;;;;;;;26.48;46.50;99312.06;4991788;28;20390;-87
2022/08/29 08:08:42;;;;;;;25.60;11.55;;;;;;;26.70;45.73;99309.44;4996284;28;20033;-87
2022/08/29 08:11:08;;;;;;;20.55;9.98;;;;;;;26.83;45.35;99325.91;4996100;28;20378;-87
2022/08/29 08:13:34;;;;;;;14.20;10.20;;;;;;;27.10;45.19;99327.69;4996363;28;20398;-86
2022/08/29 08:16:05;;;;;;;22.10;11.00;;;;;;;27.12;44.43;99336.63;4996255;28;20025;-87
2022/08/29 08:18:30;;;;;;;16.98;10.02;;;;;;;27.31;43.95;99329.94;4996740;28;20080;-87
2022/08/29 08:20:56;;;;;;;22.00;10.55;;;;;;;27.31;44.52;99327.06;4996368;28;20528;-87
2022/08/29 08:23:21;;;;;;;27.00;13.82;;;;;;;27.70;44.17;99327.19;4996802;28;20089;-87
2022/08/29 08:25:47;;;;;;;21.55;10.65;;;;;;;27.85;43.52;99323.88;4995531;28;20028;-87
2022/08/29 08:28:13;;;;;;;18.08;9.60;;;;;;;27.97;43.46;99336.63;4995850;28;20026;-87
2022/08/29 08:30:39;;;;;;;17.98;10.00;;;;;;;28.07;40.87;99335.50;4996057;28;20014;-87
2022/08/29 08:33:05;;;;;;;18.60;9.50;;;;;;;28.12;40.67;99311.94;4996284;28;20033;-87
2022/08/29 08:35:34;;;;;;;17.17;10.25;;;;;;;28.36;40.76;99320.22;4995448;28;20025;-87
2022/08/29 08:38:00;;;;;;;15.38;8.93;;;;;;;28.06;40.52;99290.78;4995726;28;20036;-87
2022/08/29 08:40:27;;;;;;;18.33;9.48;;;;;;;28.26;39.31;99290.56;4995759;28;20026;-87
2022/08/29 08:43:01;;;;;;;16.17;8.82;;;;;;;28.67;39.95;99324.53;4994774;28;20807;-87
2022/08/29 08:45:35;;;;;;;20.27;9.48;;;;;;;28.83;38.45;99321.53;5009744;28;20029;-87
2022/08/29 08:48:03;;;;;;;46.03;13.07;;;;;;;29.09;38.25;99323.50;4995515;28;20405;-87
2022/08/29 08:50:44;;;;;;;15.10;8.45;;;;;;;29.22;38.36;99327.13;4994311;28;20022;-86
2022/08/29 08:53:18;;;;;;;18.95;9.20;;;;;;;29.02;38.29;99303.63;4995493;28;20527;-87
2022/08/29 08:55:50;;;;;;;20.95;9.90;;;;;;;29.20;37.77;99311.59;4995733;28;20112;-87
2022/08/29 08:58:53;;;;;;;12.82;9.07;;;;;;;29.12;38.17;99306.09;4995777;28;20018;-87
2022/08/29 09:01:30;;;;;;;13.13;9.43;;;;;;;29.51;36.73;99293.59;4947027;28;20038;-87
2022/08/29 09:04:25;;;;;;;18.20;8.68;;;;;;;29.36;37.89;99293.31;4979429;28;20053;-87
2022/08/29 09:07:18;;;;;;;20.10;9.63;;;;;;;29.72;37.55;99291.13;4995378;28;20026;-88
2022/08/29 09:10:02;;;;;;;23.10;10.02;;;;;;;29.67;37.60;99270.31;4995163;28;20424;-88
2022/08/29 09:12:33;;;;;;;32.00;10.43;;;;;;;30.01;37.14;99290.00;4994461;28;20037;-88
2022/08/29 09:15:10;;;;;;;18.23;9.50;;;;;;;30.25;36.46;99278.72;4995382;28;20026;-88
2022/08/29 09:17:59;;;;;;;19.05;9.50;;;;;;;30.40;36.60;99276.81;4978506;28;20092;-89
2022/08/29 09:20:33;;;;;;;14.82;9.70;;;;;;;30.57;35.69;99267.09;5012842;28;20465;-88
2022/08/29 09:23:40;;;;;;;18.77;8.85;;;;;;;30.65;35.26;99275.00;4995354;28;20026;-87
2022/08/29 09:26:06;;;;;;;29.30;9.85;;;;;;;30.55;35.29;99258.91;4978828;28;20042;-88
2022/08/29 09:28:31;;;;;;;14.75;8.52;;;;;;;30.66;33.99;99272.91;4995021;28;20037;-87
2022/08/29 09:31:19;;;;;;;23.92;9.93;;;;;;;30.55;34.99;99258.91;4991438;28;20029;-87
2022/08/29 09:33:53;;;;;;;23.63;9.70;;;;;;;30.73;34.65;99271.78;4986381;28;20073;-88
2022/08/29 09:36:44;;;;;;;19.00;9.07;;;;;;;30.85;34.08;99276.59;4994428;28;20062;-88
2022/08/29 09:39:27;;;;;;;16.02;7.53;;;;;;;30.89;32.33;99271.47;4994781;28;20560;-86
2022/08/29 09:42:18;;;;;;;27.77;8.45;;;;;;;31.02;31.98;99273.41;4993446;28;20030;-87
2022/08/29 09:44:56;;;;;;;18.77;6.35;;;;;;;30.94;31.45;99265.06;4994595;28;20116;-88
2022/08/29 09:47:31;;;;;;;19.92;7.03;;;;;;;30.99;31.72;99263.59;4994645;28;20032;-88
2022/08/29 09:50:18;;;;;;;14.30;6.60;;;;;;;30.97;32.47;99263.28;4994926;28;20083;-88
2022/08/29 09:52:56;;;;;;;10.60;7.07;;;;;;;31.02;31.77;99248.19;5008854;28;20025;-88
2022/08/29 09:55:22;;;;;;;14.85;7.50;;;;;;;31.20;31.55;99264.69;4994554;28;20119;-87
2022/08/29 09:57:55;;;;;;;17.58;6.97;;;;;;;31.55;31.14;99263.53;4994511;28;20064;-87
2022/08/29 10:00:28;;;;;;;18.52;7.53;;;;;;;31.57;30.58;99263.84;4993814;28;20049;-87
2022/08/29 10:02:57;;;;;;;17.35;8.18;;;;;;;31.52;31.42;99259.53;4990655;28;20022;-87
2022/08/29 10:05:35;;;;;;;20.38;7.53;;;;;;;31.37;31.47;99261.47;4989909;28;20026;-87
2022/08/29 10:08:04;;;;;;;15.43;9.07;;;;;;;31.60;31.47;99262.06;4994489;28;20026;-88
2022/08/29 10:10:33;;;;;;;17.40;7.93;;;;;;;31.64;31.57;99254.03;4994343;28;20473;-86
2022/08/29 10:13:18;;;;;;;11.98;8.35;;;;;;;31.63;31.26;99255.34;5011007;28;20164;-86
2022/08/29 10:15:53;;;;;;;21.27;8.05;;;;;;;31.85;31.53;99251.41;4994477;28;20075;-87
2022/08/29 10:18:30;;;;;;;19.20;7.43;;;;;;;31.92;31.20;99243.19;4994010;28;20033;-86
2022/08/29 10:21:11;;;;;;;10.70;7.82;;;;;;;32.03;29.31;99238.94;4994304;28;20151;-86
2022/08/29 10:23:49;;;;;;;18.85;7.93;;;;;;;32.05;30.70;99242.16;4993056;28;20062;-87
2022/08/29 10:26:28;;;;;;;12.55;8.10;;;;;;;32.34;29.58;99234.91;4994098;28;20034;-86
2022/08/29 10:29:14;;;;;;;;;;;;;;;32.07;30.42;99239.59;4994680;28;20036;-87
2022/08/29 10:32:07;;;;;;;14.70;8.82;;;;;;;32.41;30.23;99228.00;4989615;28;19992;-87
2022/08/29 10:34:59;;;;;;;14.48;8.55;;;;;;;32.56;30.20;99233.84;4983110;28;20113;-87
2022/08/29 10:37:30;;;;;;;21.40;8.00;;;;;;;32.62;31.12;99231.84;4982814;28;20041;-86
2022/08/29 10:40:05;;;;;;;10.32;7.70;;;;;;;32.73;30.95;99231.28;4986498;28;20026;-87
2022/08/29 10:42:35;;;;;;;16.73;8.48;;;;;;;32.77;30.81;99208.72;4992027;28;20133;-87
2022/08/29 10:45:29;;;;;;;16.42;7.22;;;;;;;32.68;30.85;99215.41;4993826;28;20053;-86
2022/08/29 10:48:10;;;;;;;22.95;8.02;;;;;;;32.89;31.37;99227.91;4987402;28;20021;-87
2022/08/29 10:51:11;;;;;;;12.10;8.95;;;;;;;33.16;30.79;99226.06;4982176;28;20030;-87
2022/08/29 10:53:45;;;;;;;18.27;8.80;;;;;;;32.94;30.79;99220.66;4926509;29;20031;-87
2022/08/29 10:56:21;;;;;;;14.00;8.45;;;;;;;32.96;29.49;99229.66;4984510;28;20062;-86
2022/08/29 10:58:49;;;;;;;19.02;8.55;;;;;;;32.90;29.17;99223.75;4993191;28;20037;-86
2022/08/29 11:01:29;;;;;;;15.65;8.52;;;;;;;33.01;29.23;99207.88;4992910;28;20065;-86
2022/08/29 11:04:16;;;;;;;14.07;7.40;;;;;;;33.51;29.00;99204.31;4990991;28;20465;-87
2022/08/29 11:07:31;;;;;;;18.45;8.85;;;;;;;33.20;29.94;99199.81;4991113;28;20053;-87
2022/08/29 11:10:02;;;;;;;21.33;8.65;;;;;;;33.14;27.81;99202.59;4971207;28;20578;-87
2022/08/29 11:12:55;;;;;;;26.15;10.68;;;;;;;32.76;28.27;99192.66;5008518;28;20069;-87
2022/08/29 11:15:27;;;;;;;17.42;9.20;;;;;;;32.71;28.43;99190.47;4991698;28;20624;-86
2022/08/29 11:18:22;;;;;;;15.95;7.45;;;;;;;33.05;28.18;99186.13;4990575;28;20052;-87
2022/08/29 11:20:55;;;;;;;21.30;7.80;;;;;;;33.38;28.23;99166.13;4969955;28;20417;-88
2022/08/29 11:23:37;;;;;;;14.10;6.47;;;;;;;33.52;26.53;99174.03;4991841;28;20029;-86
2022/08/29 11:26:15;;;;;;;16.95;7.50;;;;;;;33.38;28.38;99169.81;4988107;28;20635;-87
2022/08/29 11:28:51;;;;;;;14.10;7.43;;;;;;;33.66;28.95;99154.22;5009729;28;20073;-86
2022/08/29 11:31:36;;;;;;;14.70;6.57;;;;;;;33.56;27.13;99144.84;4992526;28;20037;-86
2022/08/29 11:34:20;;;;;;;21.80;7.45;;;;;;;33.54;26.60;99156.94;4992346;28;20026;-87
2022/08/29 11:37:36;;;;;;;14.38;6.78;;;;;;;33.65;27.21;99147.59;4995754;28;20068;-86